createdAt,value
2019-03-15T00:01:44.955Z,93625.88
2019-03-15T00:04:13.626Z,93629.92
2019-03-15T00:06:42.294Z,93628.43
2019-03-15T00:09:10.980Z,93622.70
2019-03-15T00:11:39.637Z,93625.93
2019-03-15T00:14:08.325Z,93618.98
2019-03-15T00:16:36.997Z,93623.13
2019-03-15T00:19:05.676Z,93617.26
2019-03-15T00:21:34.354Z,93618.61
2019-03-15T00:24:03.029Z,93617.20
2019-03-15T00:26:31.897Z,93607.85
2019-03-15T00:29:00.584Z,93617.61
2019-03-15T00:31:29.261Z,93617.56
2019-03-15T00:33:57.989Z,93615.02
2019-03-15T00:36:26.660Z,93615.65
2019-03-15T00:38:55.376Z,93625.33
2019-03-15T00:41:24.050Z,93616.92
2019-03-15T00:43:52.709Z,93625.76
2019-03-15T00:46:21.675Z,93623.70
2019-03-15T00:48:50.347Z,93624.21
2019-03-15T00:51:19.083Z,93615.67
2019-03-15T00:53:47.765Z,93616.97
2019-03-15T00:56:16.437Z,93607.92
2019-03-15T00:58:45.114Z,93610.97
2019-03-15T01:01:13.782Z,93606.02
2019-03-15T01:03:42.452Z,93609.58
2019-03-15T01:06:11.125Z,93607.43
2019-03-15T01:08:39.805Z,93602.19
2019-03-15T01:11:08.488Z,93602.88
2019-03-15T01:13:37.251Z,93592.91
2019-03-15T01:16:05.927Z,93595.12
2019-03-15T01:18:34.578Z,93590.78
2019-03-15T01:21:03.239Z,93596.78
2019-03-15T01:23:31.906Z,93590.61
2019-03-15T01:26:00.584Z,93595.59
2019-03-15T01:28:29.251Z,93600.27
2019-03-15T01:30:57.942Z,93592.77
2019-03-15T01:33:26.580Z,93600.25
2019-03-15T01:35:55.259Z,93593.94
2019-03-15T01:38:23.932Z,93576.82
2019-03-15T01:40:52.612Z,93587.81
2019-03-15T01:43:21.280Z,93583.91
2019-03-15T01:45:49.942Z,93585.66
2019-03-15T01:48:18.632Z,93582.63
2019-03-15T01:50:47.296Z,93582.18
2019-03-15T01:53:15.962Z,93582.72
2019-03-15T01:55:44.640Z,93577.72
2019-03-15T01:58:13.328Z,93580.13
2019-03-15T02:00:42.095Z,93572.13
2019-03-15T02:03:10.776Z,93571.85
2019-03-15T02:05:39.445Z,93569.96
2019-03-15T02:08:08.124Z,93568.20
2019-03-15T02:10:37.443Z,93566.65
2019-03-15T02:13:06.464Z,93564.34
2019-03-15T02:15:35.142Z,93562.31
2019-03-15T02:18:03.825Z,93559.08
2019-03-15T02:20:32.501Z,93561.06
2019-03-15T02:23:01.205Z,93564.73
2019-03-15T02:25:29.886Z,93560.05
2019-03-15T02:27:58.567Z,93558.63
2019-03-15T02:30:27.229Z,93566.98
2019-03-15T02:32:55.920Z,93563.05
2019-03-15T02:35:24.597Z,93562.91
2019-03-15T02:37:53.262Z,93565.19
2019-03-15T02:40:21.938Z,93563.84
2019-03-15T02:42:50.739Z,93571.16
2019-03-15T02:45:19.464Z,93577.14
2019-03-15T02:47:48.171Z,93577.14
2019-03-15T02:50:16.855Z,93573.47
2019-03-15T02:52:45.562Z,93576.89
2019-03-15T02:55:14.228Z,93579.17
2019-03-15T02:57:42.896Z,93583.79
2019-03-15T03:00:11.571Z,93589.86
2019-03-15T03:02:40.250Z,93584.08
2019-03-15T03:05:10.696Z,93591.27
2019-03-15T03:07:39.788Z,93591.03
2019-03-15T03:10:09.252Z,93593.13
2019-03-15T03:12:38.143Z,93589.63
2019-03-15T03:15:07.813Z,93598.00
2019-03-15T03:17:36.476Z,93593.75
2019-03-15T03:20:06.644Z,93594.78
2019-03-15T03:22:36.353Z,93593.22
2019-03-15T03:25:06.607Z,93595.52
2019-03-15T03:27:35.294Z,93586.11
2019-03-15T03:30:04.664Z,93582.81
2019-03-15T03:32:33.365Z,93590.50
2019-03-15T03:35:02.183Z,93595.73
2019-03-15T03:37:30.933Z,93596.38
2019-03-15T03:40:01.526Z,93605.20
2019-03-15T03:42:30.008Z,93597.47
2019-03-15T03:44:58.718Z,93597.30
2019-03-15T03:47:27.384Z,93604.09
2019-03-15T03:49:56.069Z,93608.67
2019-03-15T03:52:24.743Z,93610.02
2019-03-15T03:54:53.425Z,93612.78
2019-03-15T03:57:22.093Z,93612.34
2019-03-15T03:59:50.776Z,93612.82
2019-03-15T04:02:19.553Z,93612.83
2019-03-15T04:04:48.629Z,93616.39
2019-03-15T04:07:17.524Z,93616.17
2019-03-15T04:09:46.234Z,93610.51
2019-03-15T04:12:14.907Z,93613.92
2019-03-15T04:14:43.813Z,93610.04
2019-03-15T04:17:12.665Z,93609.02
2019-03-15T04:19:41.326Z,93611.47
2019-03-15T04:22:10.024Z,93622.39
2019-03-15T04:24:38.888Z,93617.50
2019-03-15T04:27:07.555Z,93626.15
2019-03-15T04:29:36.228Z,93627.98
2019-03-15T04:32:04.895Z,93626.76
2019-03-15T04:34:33.576Z,93626.00
2019-03-15T04:37:02.309Z,93634.50
2019-03-15T04:39:30.976Z,93630.48
2019-03-15T04:41:59.769Z,93631.70
2019-03-15T04:44:28.447Z,93632.55
2019-03-15T04:46:57.302Z,93633.42
2019-03-15T04:49:25.976Z,93640.71
2019-03-15T04:51:54.647Z,93635.80
2019-03-15T04:54:23.344Z,93640.86
2019-03-15T04:56:52.023Z,93643.70
2019-03-15T04:59:23.878Z,93639.70
2019-03-15T05:01:51.094Z,93640.77
2019-03-15T05:04:19.790Z,93645.98
2019-03-15T05:06:48.468Z,93650.09
2019-03-15T05:09:17.208Z,93646.73
2019-03-15T05:11:45.873Z,93652.77
2019-03-15T05:14:14.535Z,93650.95
2019-03-15T05:16:43.210Z,93653.90
2019-03-15T05:19:11.933Z,93655.84
2019-03-15T05:21:40.907Z,93659.02
2019-03-15T05:24:09.640Z,93662.35
2019-03-15T05:26:38.322Z,93666.77
2019-03-15T05:29:06.997Z,93665.31
2019-03-15T05:31:35.670Z,93668.55
2019-03-15T05:34:04.403Z,93669.01
2019-03-15T05:36:33.071Z,93676.88
2019-03-15T05:39:01.743Z,93679.16
2019-03-15T05:41:30.418Z,93674.95
2019-03-15T05:43:59.103Z,93680.82
2019-03-15T05:46:27.773Z,93689.03
2019-03-15T05:48:56.445Z,93686.07
2019-03-15T05:51:25.269Z,93689.64
2019-03-15T05:53:53.965Z,93684.05
2019-03-15T05:56:22.633Z,93686.33
2019-03-15T05:58:51.322Z,93693.74
2019-03-15T06:01:20.272Z,93691.58
2019-03-15T06:03:49.459Z,93697.52
2019-03-15T06:06:18.398Z,93697.13
2019-03-15T06:08:47.067Z,93696.55
2019-03-15T06:11:15.834Z,93701.38
2019-03-15T06:13:44.503Z,93701.37
2019-03-15T06:16:13.176Z,93703.09
2019-03-15T06:18:41.862Z,93701.05
2019-03-15T06:21:10.531Z,93697.80
2019-03-15T06:23:39.227Z,93694.02
2019-03-15T06:26:07.877Z,93701.09
2019-03-15T06:28:36.547Z,93707.63
2019-03-15T06:31:05.217Z,93705.61
2019-03-15T06:33:33.994Z,93708.22
2019-03-15T06:36:02.710Z,93714.36
2019-03-15T06:38:33.504Z,93713.93
2019-03-15T06:41:01.801Z,93712.67
2019-03-15T06:43:30.819Z,93718.31
2019-03-15T06:45:59.918Z,93725.68
2019-03-15T06:48:28.598Z,93720.81
2019-03-15T06:50:57.308Z,93728.22
2019-03-15T06:53:26.923Z,93720.06
2019-03-15T06:55:55.648Z,93735.88
2019-03-15T06:58:24.362Z,93733.96
2019-03-15T07:00:54.717Z,93742.53
2019-03-15T07:03:23.406Z,93735.63
2019-03-15T07:05:52.088Z,93673.05
2019-03-15T07:08:20.914Z,93735.86
2019-03-15T07:10:49.792Z,93736.24
2019-03-15T07:13:18.653Z,93738.03
2019-03-15T07:15:47.738Z,93734.28
2019-03-15T07:18:18.703Z,93734.31
2019-03-15T07:20:48.015Z,93730.06
2019-03-15T07:23:16.700Z,93731.62
2019-03-15T07:25:45.463Z,93734.59
2019-03-15T07:28:14.412Z,93736.37
2019-03-15T07:30:43.059Z,93731.81
2019-03-15T07:33:11.778Z,93739.70
2019-03-15T07:35:40.497Z,93742.95
2019-03-15T07:38:09.355Z,93741.64
2019-03-15T07:40:38.001Z,93733.63
2019-03-15T07:43:06.692Z,93734.88
2019-03-15T07:45:35.383Z,93728.14
2019-03-15T07:48:04.397Z,93726.28
2019-03-15T07:50:33.081Z,93723.50
2019-03-15T07:53:01.981Z,93722.27
2019-03-15T07:55:30.745Z,93734.45
2019-03-15T07:57:59.644Z,93729.44
2019-03-15T08:00:28.382Z,93721.59
2019-03-15T08:02:57.063Z,93721.72
2019-03-15T08:05:25.877Z,93727.49
2019-03-15T08:07:54.546Z,93727.98
2019-03-15T08:10:23.226Z,93724.83
2019-03-15T08:12:52.153Z,93731.36
2019-03-15T08:15:20.807Z,93732.92
2019-03-15T08:17:49.507Z,93734.38
2019-03-15T08:20:18.206Z,93741.97
2019-03-15T08:22:46.870Z,93735.78
2019-03-15T08:25:15.837Z,93734.69
2019-03-15T08:27:44.536Z,93740.74
2019-03-15T08:30:15.480Z,93743.39
2019-03-15T08:32:44.379Z,93739.27
2019-03-15T08:35:13.766Z,93741.17
2019-03-15T08:37:42.781Z,93743.35
2019-03-15T08:40:13.678Z,93744.33
2019-03-15T08:42:42.491Z,93744.00
2019-03-15T08:45:18.886Z,93737.59
2019-03-15T08:47:47.767Z,93732.06
2019-03-15T08:50:17.984Z,93727.31
2019-03-15T08:52:46.690Z,93736.93
2019-03-15T08:55:15.827Z,93735.66
2019-03-15T08:57:44.567Z,93730.14
2019-03-15T09:00:14.763Z,93737.84
2019-03-15T09:02:43.582Z,93733.66
2019-03-15T09:05:13.741Z,93725.17
2019-03-15T09:07:42.534Z,93727.69
2019-03-15T09:10:23.831Z,93732.95
2019-03-15T09:12:49.623Z,93733.09
2019-03-15T09:15:18.340Z,93728.13
2019-03-15T09:17:47.187Z,93731.28
2019-03-15T09:20:16.487Z,93726.51
2019-03-15T09:22:45.562Z,93720.39
2019-03-15T09:25:20.142Z,93730.48
2019-03-15T09:27:49.344Z,93724.17
2019-03-15T09:30:23.812Z,93723.16
2019-03-15T09:32:49.174Z,93723.50
2019-03-15T09:35:18.063Z,93724.88
2019-03-15T09:37:47.859Z,93724.53
2019-03-15T09:40:17.047Z,93723.13
2019-03-15T09:42:47.536Z,93726.56
2019-03-15T09:45:18.378Z,93722.21
2019-03-15T09:47:47.472Z,93719.05
2019-03-15T09:50:26.554Z,93726.89
2019-03-15T09:52:47.704Z,93732.23
2019-03-15T09:55:17.019Z,93731.13
2019-03-15T09:57:45.712Z,93718.66
2019-03-15T10:00:21.092Z,93717.03
2019-03-15T10:02:49.981Z,93715.44
2019-03-15T10:05:18.668Z,93720.13
2019-03-15T10:07:47.389Z,93721.56
2019-03-15T10:10:20.065Z,93716.31
2019-03-15T10:12:48.788Z,93720.97
2019-03-15T10:15:18.153Z,93718.97
2019-03-15T10:17:46.840Z,93716.64
2019-03-15T10:20:16.276Z,93716.64
2019-03-15T10:22:45.135Z,93714.92
2019-03-15T10:25:17.397Z,93712.77
2019-03-15T10:27:46.228Z,93713.11
2019-03-15T10:30:17.539Z,93711.59
2019-03-15T10:32:46.731Z,93710.09
2019-03-15T10:35:15.717Z,93708.00
2019-03-15T10:37:44.395Z,93704.00
2019-03-15T10:40:18.623Z,93705.60
2019-03-15T10:42:47.284Z,93697.94
2019-03-15T10:45:16.191Z,93692.14
2019-03-15T10:47:44.864Z,93689.87
2019-03-15T10:50:15.337Z,93689.95
2019-03-15T10:52:44.027Z,93675.55
2019-03-15T10:55:13.253Z,93688.38
2019-03-15T10:57:42.226Z,93685.73
2019-03-15T11:00:23.184Z,93690.38
2019-03-15T11:02:52.006Z,93676.84
2019-03-15T11:05:20.911Z,93677.45
2019-03-15T11:07:49.952Z,93674.91
2019-03-15T11:10:20.094Z,93679.20
2019-03-15T11:12:48.769Z,93682.16
2019-03-15T11:15:17.469Z,93669.94
2019-03-15T11:17:46.207Z,93674.18
2019-03-15T11:20:14.868Z,93669.63
2019-03-15T11:22:43.560Z,93662.56
2019-03-15T11:25:15.179Z,93633.75
2019-03-15T11:27:43.851Z,93649.86
2019-03-15T11:30:14.774Z,93655.08
2019-03-15T11:32:43.448Z,93656.82
2019-03-15T11:35:12.587Z,93659.82
2019-03-15T11:37:41.337Z,93653.18
2019-03-15T11:40:15.174Z,93652.69
2019-03-15T11:42:44.436Z,93645.92
2019-03-15T11:45:14.206Z,93655.26
2019-03-15T11:48:01.925Z,93646.16
2019-03-15T11:50:16.453Z,93636.72
2019-03-15T11:52:45.111Z,93628.02
2019-03-15T11:55:13.828Z,93628.30
2019-03-15T11:57:42.644Z,93606.73
2019-03-15T12:00:14.358Z,93617.00
2019-03-15T12:02:43.076Z,93615.98
2019-03-15T12:05:12.364Z,93636.87
2019-03-15T12:07:40.979Z,93631.58
2019-03-15T12:10:12.375Z,93625.22
2019-03-15T12:12:41.102Z,93621.73
2019-03-15T12:15:14.593Z,93612.97
2019-03-15T12:17:43.326Z,93610.98
2019-03-15T12:20:12.889Z,93622.07
2019-03-15T12:22:41.625Z,93626.08
2019-03-15T12:25:11.002Z,93614.20
2019-03-15T12:27:39.789Z,93614.66
2019-03-15T12:30:16.370Z,93612.95
2019-03-15T12:32:45.042Z,93610.37
2019-03-15T12:35:14.958Z,93600.84
2019-03-15T12:37:43.786Z,93604.03
2019-03-15T12:40:14.539Z,93603.25
2019-03-15T12:42:43.425Z,93606.81
2019-03-15T12:45:13.094Z,93602.64
2019-03-15T12:47:41.780Z,93596.22
2019-03-15T12:50:11.655Z,93594.72
2019-03-15T12:52:47.765Z,93588.86
2019-03-15T12:55:12.187Z,93591.70
2019-03-15T12:57:40.943Z,93586.09
2019-03-15T13:00:18.464Z,93594.05
2019-03-15T13:02:47.286Z,93600.92
2019-03-15T13:05:15.973Z,93603.17
2019-03-15T13:07:44.745Z,93591.25
2019-03-15T13:10:17.837Z,93599.56
2019-03-15T13:12:47.461Z,93602.81
2019-03-15T13:15:19.846Z,93593.68
2019-03-15T13:17:48.520Z,93604.74
2019-03-15T13:20:18.039Z,93608.70
2019-03-15T13:22:46.811Z,93605.17
2019-03-15T13:25:15.484Z,93606.89
2019-03-15T13:27:44.199Z,93600.69
2019-03-15T13:30:14.140Z,93595.80
2019-03-15T13:32:43.039Z,93603.73
2019-03-15T13:35:12.475Z,93606.73
2019-03-15T13:37:43.160Z,93603.31
2019-03-15T13:40:16.412Z,93601.36
2019-03-15T13:42:45.091Z,93606.27
2019-03-15T13:45:14.874Z,93611.61
2019-03-15T13:47:50.913Z,93607.91
2019-03-15T13:50:21.106Z,93612.96
2019-03-15T13:52:49.795Z,93610.36
2019-03-15T13:55:22.085Z,93600.52
2019-03-15T13:57:51.093Z,93614.30
2019-03-15T14:00:20.677Z,93614.30
2019-03-15T14:02:49.534Z,93610.48
2019-03-15T14:05:18.232Z,93614.45
2019-03-15T14:07:46.951Z,93617.10
2019-03-15T14:10:17.822Z,93617.17
2019-03-15T14:12:46.468Z,93618.27
2019-03-15T14:15:20.208Z,93621.45
2019-03-15T14:17:48.870Z,93617.48
2019-03-15T14:20:17.586Z,93622.19
2019-03-15T14:22:46.274Z,93628.08
2019-03-15T14:25:17.553Z,93629.57
2019-03-15T14:27:46.547Z,93627.99
2019-03-15T14:30:15.963Z,93623.63
2019-03-15T14:32:44.977Z,93631.11
2019-03-15T14:35:13.841Z,93632.78
2019-03-15T14:37:42.880Z,93637.72
2019-03-15T14:40:12.341Z,93640.76
2019-03-15T14:42:41.227Z,93633.83
2019-03-15T14:45:16.455Z,93642.04
2019-03-15T14:47:45.728Z,93644.86
2019-03-15T14:50:15.401Z,93653.58
2019-03-15T14:52:44.092Z,93655.07
2019-03-15T14:55:17.239Z,93651.38
2019-03-15T14:57:52.690Z,93662.17
2019-03-15T15:00:21.363Z,93666.47
2019-03-15T15:02:50.251Z,93663.82
2019-03-15T15:05:18.921Z,93660.69
2019-03-15T15:07:47.645Z,93666.70
2019-03-15T15:10:19.629Z,93676.36
2019-03-15T15:12:48.313Z,93671.19
2019-03-15T15:15:21.436Z,93679.77
2019-03-15T15:17:50.255Z,93681.04
2019-03-15T15:20:19.122Z,93672.79
2019-03-15T15:22:48.024Z,93674.95
2019-03-15T15:25:17.580Z,93681.83
2019-03-15T15:27:46.253Z,93688.08
2019-03-15T15:30:15.895Z,93690.79
2019-03-15T15:32:44.844Z,93698.63
2019-03-15T15:35:14.436Z,93683.36
2019-03-15T15:37:43.435Z,93687.75
2019-03-15T15:40:18.653Z,93695.32
2019-03-15T15:42:47.553Z,93694.75
2019-03-15T15:45:16.310Z,93700.40
2019-03-15T15:47:45.014Z,93697.70
2019-03-15T15:50:15.777Z,93704.52
2019-03-15T15:52:44.860Z,93706.18
2019-03-15T15:55:15.571Z,93712.58
2019-03-15T15:57:44.607Z,93714.88
2019-03-15T16:00:14.670Z,93722.62
2019-03-15T16:02:43.365Z,93725.59
2019-03-15T16:05:12.474Z,93730.41
2019-03-15T16:07:41.172Z,93731.67
2019-03-15T16:10:12.813Z,93733.25
2019-03-15T16:12:41.697Z,93735.55
2019-03-15T16:15:18.130Z,93739.45
2019-03-15T16:17:46.796Z,93742.22
2019-03-15T16:20:15.597Z,93749.58
2019-03-15T16:22:44.300Z,93753.67
2019-03-15T16:25:13.606Z,93747.67
2019-03-15T16:27:42.279Z,93761.20
2019-03-15T16:30:15.796Z,93750.62
2019-03-15T16:32:44.725Z,93762.39
2019-03-15T16:35:14.709Z,93770.44
2019-03-15T16:37:43.478Z,93769.45
2019-03-15T16:40:13.957Z,93780.22
2019-03-15T16:42:42.631Z,93780.47
2019-03-15T16:45:29.282Z,93790.45
2019-03-15T16:47:57.922Z,93790.11
2019-03-15T16:50:26.592Z,93796.38
2019-03-15T16:52:55.390Z,93798.34
2019-03-15T16:55:24.052Z,93806.73
2019-03-15T16:57:52.950Z,93805.48
2019-03-15T17:00:21.627Z,93806.34
2019-03-15T17:02:50.290Z,93813.13
2019-03-15T17:05:18.983Z,93821.23
2019-03-15T17:07:47.688Z,93828.97
2019-03-15T17:10:17.892Z,93830.05
2019-03-15T17:12:46.553Z,93830.27
2019-03-15T17:15:25.690Z,93834.51
2019-03-15T17:17:54.507Z,93840.66
2019-03-15T17:20:23.208Z,93847.70
2019-03-15T17:22:51.981Z,93846.58
2019-03-15T17:25:20.653Z,93854.21
2019-03-15T17:27:49.399Z,93862.06
2019-03-15T17:30:18.592Z,93871.52
2019-03-15T17:32:47.302Z,93873.81
2019-03-15T17:35:20.719Z,93876.10
2019-03-15T17:37:49.446Z,93879.38
2019-03-15T17:40:21.924Z,93878.33
2019-03-15T17:42:50.781Z,93889.64
2019-03-15T17:45:19.505Z,93888.78
2019-03-15T17:47:48.225Z,93889.98
2019-03-15T17:50:25.073Z,93891.76
2019-03-15T17:52:53.731Z,93893.41
2019-03-15T17:55:22.617Z,93897.20
2019-03-15T17:57:51.465Z,93898.13
2019-03-15T18:00:27.264Z,93910.36
2019-03-15T18:02:56.057Z,93897.09
2019-03-15T18:05:24.823Z,93908.28
2019-03-15T18:07:53.486Z,93902.78
2019-03-15T18:10:22.478Z,93904.77
2019-03-15T18:12:51.128Z,93911.87
2019-03-15T18:15:19.798Z,93911.33
2019-03-15T18:17:48.453Z,93918.14
2019-03-15T18:20:17.125Z,93915.23
2019-03-15T18:22:45.791Z,93926.78
2019-03-15T18:25:15.134Z,93931.38
2019-03-15T18:27:43.790Z,93928.67
2019-03-15T18:30:16.978Z,93936.28
2019-03-15T18:32:46.087Z,93940.34
2019-03-15T18:35:15.151Z,93936.11
2019-03-15T18:37:43.809Z,93946.94
2019-03-15T18:40:21.800Z,93950.78
2019-03-15T18:42:50.458Z,93948.78
2019-03-15T18:45:19.554Z,93951.56
2019-03-15T18:47:48.216Z,93951.52
2019-03-15T18:50:19.505Z,93956.07
2019-03-15T18:52:48.301Z,93954.44
2019-03-15T18:55:17.180Z,93960.86
2019-03-15T18:57:46.306Z,93958.71
2019-03-15T19:00:17.074Z,93966.17
2019-03-15T19:02:45.745Z,93968.59
2019-03-15T19:05:14.666Z,93966.58
2019-03-15T19:07:43.470Z,93969.75
2019-03-15T19:10:15.704Z,93974.95
2019-03-15T19:12:44.580Z,93969.75
2019-03-15T19:15:15.194Z,93974.84
2019-03-15T19:17:44.057Z,93980.53
2019-03-15T19:20:17.162Z,93979.80
2019-03-15T19:22:46.161Z,93986.14
2019-03-15T19:25:15.790Z,93988.51
2019-03-15T19:27:44.567Z,93974.34
2019-03-15T19:30:18.136Z,93996.48
2019-03-15T19:32:46.802Z,93992.70
2019-03-15T19:35:15.449Z,94002.02
2019-03-15T19:37:44.111Z,94001.19
2019-03-15T19:40:17.811Z,93997.92
2019-03-15T19:42:46.621Z,94004.66
2019-03-15T19:45:16.066Z,93975.00
2019-03-15T19:47:44.727Z,94004.47
2019-03-15T19:50:15.262Z,94004.33
2019-03-15T19:52:43.920Z,94005.73
2019-03-15T19:55:13.894Z,94009.38
2019-03-15T19:57:42.552Z,94014.86
2019-03-15T20:00:22.377Z,94021.62
2019-03-15T20:02:51.095Z,94023.16
2019-03-15T20:05:19.746Z,94027.36
2019-03-15T20:07:48.565Z,94034.13
2019-03-15T20:10:17.602Z,94034.86
2019-03-15T20:12:46.383Z,94032.84
2019-03-15T20:15:16.731Z,94037.22
2019-03-15T20:17:45.797Z,94039.16
2019-03-15T20:20:17.384Z,94034.58
2019-03-15T20:22:46.106Z,94043.19
2019-03-15T20:25:15.795Z,94038.46
2019-03-15T20:27:44.449Z,94038.00
2019-03-15T20:30:21.195Z,94035.44
2019-03-15T20:32:45.600Z,94034.77
2019-03-15T20:35:14.489Z,94034.10
2019-03-15T20:37:43.142Z,94029.74
2019-03-15T20:40:15.622Z,94035.34
2019-03-15T20:42:44.272Z,94031.59
2019-03-15T20:45:15.551Z,94029.69
2019-03-15T20:47:44.203Z,94030.09
2019-03-15T20:50:14.408Z,94028.95
2019-03-15T20:52:43.074Z,94026.18
2019-03-15T20:55:11.687Z,94022.26
2019-03-15T20:57:40.365Z,94021.59
2019-03-15T21:00:17.039Z,94029.67
2019-03-15T21:02:45.737Z,94032.97
2019-03-15T21:05:14.508Z,94012.72
2019-03-15T21:07:44.114Z,94036.60
2019-03-15T21:10:20.490Z,94025.70
2019-03-15T21:12:52.156Z,94026.23
2019-03-15T21:15:20.931Z,94025.24
2019-03-15T21:17:50.144Z,94025.86
2019-03-15T21:20:22.615Z,94020.98
2019-03-15T21:22:50.586Z,94022.15
2019-03-15T21:25:19.214Z,94024.00
2019-03-15T21:27:54.222Z,94037.85
2019-03-15T21:30:20.449Z,94038.25
2019-03-15T21:32:49.082Z,94033.17
2019-03-15T21:35:17.755Z,94028.19
2019-03-15T21:37:46.425Z,94033.33
2019-03-15T21:40:16.294Z,94027.32
2019-03-15T21:42:44.941Z,94030.96
2019-03-15T21:45:14.211Z,94028.94
2019-03-15T21:47:42.886Z,94035.64
2019-03-15T21:50:16.660Z,94034.97
2019-03-15T21:52:45.343Z,94034.30
2019-03-15T21:55:14.541Z,94038.35
2019-03-15T21:57:43.183Z,94046.47
2019-03-15T22:00:16.810Z,94046.80
2019-03-15T22:02:45.468Z,94046.84
2019-03-15T22:05:14.131Z,94051.02
2019-03-15T22:07:42.802Z,94048.39
2019-03-15T22:10:15.594Z,94050.97
2019-03-15T22:12:44.256Z,94048.08
2019-03-15T22:15:14.279Z,94057.30
2019-03-15T22:17:43.219Z,94058.66
2019-03-15T22:20:16.221Z,94056.94
2019-03-15T22:22:44.853Z,94059.52
2019-03-15T22:25:13.636Z,94060.43
2019-03-15T22:27:42.284Z,94063.48
2019-03-15T22:30:16.825Z,94063.41
2019-03-15T22:32:45.516Z,94057.38
2019-03-15T22:35:14.209Z,94051.98
2019-03-15T22:37:42.879Z,94047.87
2019-03-15T22:40:13.116Z,94054.57
2019-03-15T22:42:41.777Z,94053.79
2019-03-15T22:45:11.645Z,94061.38
2019-03-15T22:47:40.317Z,94049.98
2019-03-15T22:50:10.884Z,94062.23
2019-03-15T22:52:39.618Z,94056.13
2019-03-15T22:55:10.132Z,94038.44
2019-03-15T22:57:38.879Z,94055.02
2019-03-15T23:00:18.328Z,94055.39
2019-03-15T23:02:47.076Z,94051.98
2019-03-15T23:05:15.702Z,94049.34
2019-03-15T23:07:44.435Z,94055.85
2019-03-15T23:10:13.581Z,94026.64
2019-03-15T23:12:42.241Z,94043.86
2019-03-15T23:15:12.305Z,94038.63
2019-03-15T23:17:40.971Z,94042.96
2019-03-15T23:20:13.867Z,94042.96
2019-03-15T23:22:42.604Z,94041.00
2019-03-15T23:25:11.473Z,94041.33
2019-03-15T23:27:40.134Z,94002.75
2019-03-15T23:30:11.836Z,94044.36
2019-03-15T23:32:40.496Z,94044.36
2019-03-15T23:35:09.271Z,94044.02
2019-03-15T23:37:37.945Z,94060.62
2019-03-15T23:40:09.230Z,94052.55
2019-03-15T23:42:37.898Z,94048.20
2019-03-15T23:45:11.556Z,94030.06
2019-03-15T23:47:40.232Z,94049.63
2019-03-15T23:50:13.806Z,94039.67
2019-03-15T23:52:42.580Z,94030.26
2019-03-15T23:55:11.268Z,94037.72
2019-03-15T23:57:40.270Z,94042.98
